sensor_id;sensor_type;location;lat;lon;timestamp;P1;durP1;ratioP1;P2;durP2;ratioP2
4867;SDS011;2448;48.086;10.862;2023-04-30T00:00:41;3.17;;;2.87;;
4867;SDS011;2448;48.086;10.862;2023-04-30T00:03:07;3.30;;;2.90;;
4867;SDS011;2448;48.086;10.862;2023-04-30T00:05:32;3.37;;;3.00;;
4867;SDS011;2448;48.086;10.862;2023-04-30T00:07:57;3.20;;;2.90;;
4867;SDS011;2448;48.086;10.862;2023-04-30T00:10:23;2.70;;;2.50;;
4867;SDS011;2448;48.086;10.862;2023-04-30T00:12:48;3.40;;;3.00;;
4867;SDS011;2448;48.086;10.862;2023-04-30T00:15:13;4.47;;;2.77;;
4867;SDS011;2448;48.086;10.862;2023-04-30T00:17:39;4.33;;;2.60;;
4867;SDS011;2448;48.086;10.862;2023-04-30T00:20:04;3.57;;;3.27;;
4867;SDS011;2448;48.086;10.862;2023-04-30T00:22:30;3.20;;;2.60;;
4867;SDS011;2448;48.086;10.862;2023-04-30T00:24:57;3.43;;;2.90;;
4867;SDS011;2448;48.086;10.862;2023-04-30T00:27:22;2.87;;;2.50;;
4867;SDS011;2448;48.086;10.862;2023-04-30T00:29:48;3.00;;;2.63;;
4867;SDS011;2448;48.086;10.862;2023-04-30T00:32:13;3.10;;;2.80;;
4867;SDS011;2448;48.086;10.862;2023-04-30T00:34:39;2.83;;;2.53;;
4867;SDS011;2448;48.086;10.862;2023-04-30T00:37:04;6.17;;;3.47;;
4867;SDS011;2448;48.086;10.862;2023-04-30T00:39:30;3.77;;;2.70;;
4867;SDS011;2448;48.086;10.862;2023-04-30T00:41:55;2.80;;;2.60;;
4867;SDS011;2448;48.086;10.862;2023-04-30T00:44:20;3.80;;;3.07;;
4867;SDS011;2448;48.086;10.862;2023-04-30T00:46:46;5.03;;;3.40;;
4867;SDS011;2448;48.086;10.862;2023-04-30T00:49:11;4.93;;;3.37;;
4867;SDS011;2448;48.086;10.862;2023-04-30T00:51:37;3.80;;;3.13;;
4867;SDS011;2448;48.086;10.862;2023-04-30T00:54:04;2.97;;;2.77;;
4867;SDS011;2448;48.086;10.862;2023-04-30T00:56:31;7.53;;;3.60;;
4867;SDS011;2448;48.086;10.862;2023-04-30T00:58:57;3.07;;;2.50;;
4867;SDS011;2448;48.086;10.862;2023-04-30T01:01:24;7.13;;;3.07;;
4867;SDS011;2448;48.086;10.862;2023-04-30T01:03:49;3.23;;;2.93;;
4867;SDS011;2448;48.086;10.862;2023-04-30T01:06:14;3.93;;;3.10;;
4867;SDS011;2448;48.086;10.862;2023-04-30T01:08:41;3.00;;;2.30;;
4867;SDS011;2448;48.086;10.862;2023-04-30T01:11:16;3.87;;;3.10;;
4867;SDS011;2448;48.086;10.862;2023-04-30T01:13:52;3.07;;;2.80;;
4867;SDS011;2448;48.086;10.862;2023-04-30T01:16:24;4.73;;;3.10;;
4867;SDS011;2448;48.086;10.862;2023-04-30T01:18:55;5.37;;;3.20;;
4867;SDS011;2448;48.086;10.862;2023-04-30T01:21:21;4.20;;;3.07;;
4867;SDS011;2448;48.086;10.862;2023-04-30T01:28:58;3.90;;;3.40;;
4867;SDS011;2448;48.086;10.862;2023-04-30T01:31:26;3.63;;;3.33;;
4867;SDS011;2448;48.086;10.862;2023-04-30T01:33:52;9.33;;;4.20;;
4867;SDS011;2448;48.086;10.862;2023-04-30T01:41:39;4.50;;;3.20;;
4867;SDS011;2448;48.086;10.862;2023-04-30T01:44:15;5.77;;;3.60;;
4867;SDS011;2448;48.086;10.862;2023-04-30T01:46:41;6.00;;;3.40;;
4867;SDS011;2448;48.086;10.862;2023-04-30T01:51:38;3.77;;;3.20;;
4867;SDS011;2448;48.086;10.862;2023-04-30T01:54:05;3.53;;;2.93;;
4867;SDS011;2448;48.086;10.862;2023-04-30T01:56:36;3.80;;;3.37;;
4867;SDS011;2448;48.086;10.862;2023-04-30T01:59:03;5.03;;;3.73;;
4867;SDS011;2448;48.086;10.862;2023-04-30T02:01:30;3.90;;;3.50;;
4867;SDS011;2448;48.086;10.862;2023-04-30T02:03:56;4.07;;;3.50;;
4867;SDS011;2448;48.086;10.862;2023-04-30T02:06:22;4.20;;;3.30;;
4867;SDS011;2448;48.086;10.862;2023-04-30T02:08:52;4.03;;;3.00;;
4867;SDS011;2448;48.086;10.862;2023-04-30T02:11:18;7.60;;;3.87;;
4867;SDS011;2448;48.086;10.862;2023-04-30T02:13:43;4.50;;;3.30;;
4867;SDS011;2448;48.086;10.862;2023-04-30T02:16:09;4.37;;;3.20;;
4867;SDS011;2448;48.086;10.862;2023-04-30T02:18:34;4.03;;;3.27;;
4867;SDS011;2448;48.086;10.862;2023-04-30T02:21:00;3.50;;;2.97;;
4867;SDS011;2448;48.086;10.862;2023-04-30T02:23:25;3.67;;;3.00;;
4867;SDS011;2448;48.086;10.862;2023-04-30T02:25:50;3.23;;;2.93;;
4867;SDS011;2448;48.086;10.862;2023-04-30T02:28:16;3.37;;;3.00;;
4867;SDS011;2448;48.086;10.862;2023-04-30T02:30:41;3.77;;;3.40;;
4867;SDS011;2448;48.086;10.862;2023-04-30T02:33:06;3.33;;;3.03;;
4867;SDS011;2448;48.086;10.862;2023-04-30T02:35:32;3.83;;;3.50;;
4867;SDS011;2448;48.086;10.862;2023-04-30T02:37:57;3.47;;;2.97;;
4867;SDS011;2448;48.086;10.862;2023-04-30T02:40:22;4.13;;;3.50;;
4867;SDS011;2448;48.086;10.862;2023-04-30T02:42:48;3.17;;;2.87;;
4867;SDS011;2448;48.086;10.862;2023-04-30T02:45:14;4.10;;;3.17;;
4867;SDS011;2448;48.086;10.862;2023-04-30T02:47:39;4.53;;;3.10;;
4867;SDS011;2448;48.086;10.862;2023-04-30T02:50:05;4.43;;;2.90;;
4867;SDS011;2448;48.086;10.862;2023-04-30T02:52:31;6.87;;;3.60;;
4867;SDS011;2448;48.086;10.862;2023-04-30T02:54:56;3.93;;;3.53;;
4867;SDS011;2448;48.086;10.862;2023-04-30T02:57:21;4.03;;;3.07;;
4867;SDS011;2448;48.086;10.862;2023-04-30T02:59:47;3.83;;;3.40;;
4867;SDS011;2448;48.086;10.862;2023-04-30T03:02:12;3.00;;;2.67;;
4867;SDS011;2448;48.086;10.862;2023-04-30T03:04:39;8.13;;;3.90;;
4867;SDS011;2448;48.086;10.862;2023-04-30T03:07:04;3.70;;;3.20;;
4867;SDS011;2448;48.086;10.862;2023-04-30T03:09:31;3.13;;;2.90;;
4867;SDS011;2448;48.086;10.862;2023-04-30T03:11:56;4.33;;;3.30;;
4867;SDS011;2448;48.086;10.862;2023-04-30T03:14:21;3.60;;;3.30;;
4867;SDS011;2448;48.086;10.862;2023-04-30T03:16:47;3.60;;;2.90;;
4867;SDS011;2448;48.086;10.862;2023-04-30T03:19:13;3.40;;;3.10;;
4867;SDS011;2448;48.086;10.862;2023-04-30T03:21:38;3.13;;;2.83;;
4867;SDS011;2448;48.086;10.862;2023-04-30T03:24:04;4.70;;;3.37;;
4867;SDS011;2448;48.086;10.862;2023-04-30T03:26:29;3.57;;;3.10;;
4867;SDS011;2448;48.086;10.862;2023-04-30T03:28:55;4.17;;;3.47;;
4867;SDS011;2448;48.086;10.862;2023-04-30T03:31:20;3.70;;;3.20;;
4867;SDS011;2448;48.086;10.862;2023-04-30T03:33:45;4.30;;;3.90;;
4867;SDS011;2448;48.086;10.862;2023-04-30T03:36:11;4.07;;;3.63;;
4867;SDS011;2448;48.086;10.862;2023-04-30T03:38:37;3.60;;;3.30;;
4867;SDS011;2448;48.086;10.862;2023-04-30T03:41:02;4.03;;;3.43;;
4867;SDS011;2448;48.086;10.862;2023-04-30T03:43:28;5.30;;;3.50;;
4867;SDS011;2448;48.086;10.862;2023-04-30T03:45:53;3.80;;;3.40;;
4867;SDS011;2448;48.086;10.862;2023-04-30T03:48:19;4.00;;;3.43;;
4867;SDS011;2448;48.086;10.862;2023-04-30T03:50:44;4.43;;;3.37;;
4867;SDS011;2448;48.086;10.862;2023-04-30T03:53:11;3.63;;;3.33;;
4867;SDS011;2448;48.086;10.862;2023-04-30T03:55:36;4.87;;;3.70;;
4867;SDS011;2448;48.086;10.862;2023-04-30T03:58:01;4.77;;;3.53;;
4867;SDS011;2448;48.086;10.862;2023-04-30T04:00:27;5.43;;;3.87;;
4867;SDS011;2448;48.086;10.862;2023-04-30T04:02:53;4.23;;;3.50;;
4867;SDS011;2448;48.086;10.862;2023-04-30T04:05:19;10.33;;;4.30;;
4867;SDS011;2448;48.086;10.862;2023-04-30T04:07:45;5.97;;;4.00;;
4867;SDS011;2448;48.086;10.862;2023-04-30T04:10:10;3.33;;;3.13;;
4867;SDS011;2448;48.086;10.862;2023-04-30T04:12:36;5.93;;;3.90;;
4867;SDS011;2448;48.086;10.862;2023-04-30T04:15:01;5.93;;;4.77;;
4867;SDS011;2448;48.086;10.862;2023-04-30T04:17:27;5.43;;;3.57;;
4867;SDS011;2448;48.086;10.862;2023-04-30T04:19:53;4.60;;;3.50;;
4867;SDS011;2448;48.086;10.862;2023-04-30T04:22:18;6.10;;;3.80;;
4867;SDS011;2448;48.086;10.862;2023-04-30T04:24:44;7.53;;;4.27;;
4867;SDS011;2448;48.086;10.862;2023-04-30T04:27:16;5.50;;;3.83;;
4867;SDS011;2448;48.086;10.862;2023-04-30T04:29:41;5.37;;;3.93;;
4867;SDS011;2448;48.086;10.862;2023-04-30T04:32:07;6.80;;;4.27;;
4867;SDS011;2448;48.086;10.862;2023-04-30T04:34:35;5.80;;;3.80;;
4867;SDS011;2448;48.086;10.862;2023-04-30T04:37:02;9.00;;;3.67;;
4867;SDS011;2448;48.086;10.862;2023-04-30T04:39:28;7.47;;;4.57;;
4867;SDS011;2448;48.086;10.862;2023-04-30T04:41:53;6.07;;;3.87;;
4867;SDS011;2448;48.086;10.862;2023-04-30T04:44:19;5.53;;;4.20;;
4867;SDS011;2448;48.086;10.862;2023-04-30T04:46:45;19.20;;;3.80;;
4867;SDS011;2448;48.086;10.862;2023-04-30T04:49:10;5.97;;;3.90;;
4867;SDS011;2448;48.086;10.862;2023-04-30T04:51:36;8.80;;;4.13;;
4867;SDS011;2448;48.086;10.862;2023-04-30T04:54:04;5.13;;;4.23;;
4867;SDS011;2448;48.086;10.862;2023-04-30T04:56:29;5.97;;;4.80;;
4867;SDS011;2448;48.086;10.862;2023-04-30T04:58:55;8.33;;;4.13;;
4867;SDS011;2448;48.086;10.862;2023-04-30T05:01:21;6.33;;;4.47;;
4867;SDS011;2448;48.086;10.862;2023-04-30T05:03:46;6.00;;;4.30;;
4867;SDS011;2448;48.086;10.862;2023-04-30T05:06:12;6.43;;;4.30;;
4867;SDS011;2448;48.086;10.862;2023-04-30T05:08:38;4.27;;;3.87;;
4867;SDS011;2448;48.086;10.862;2023-04-30T05:11:03;5.23;;;4.00;;
4867;SDS011;2448;48.086;10.862;2023-04-30T05:13:28;4.97;;;4.00;;
4867;SDS011;2448;48.086;10.862;2023-04-30T05:15:54;5.47;;;3.60;;
4867;SDS011;2448;48.086;10.862;2023-04-30T05:18:20;7.33;;;4.80;;
4867;SDS011;2448;48.086;10.862;2023-04-30T05:20:45;7.33;;;4.33;;
4867;SDS011;2448;48.086;10.862;2023-04-30T05:23:11;4.07;;;3.37;;
4867;SDS011;2448;48.086;10.862;2023-04-30T05:25:36;6.27;;;4.40;;
4867;SDS011;2448;48.086;10.862;2023-04-30T05:28:02;5.80;;;3.80;;
4867;SDS011;2448;48.086;10.862;2023-04-30T05:30:27;8.90;;;4.17;;
4867;SDS011;2448;48.086;10.862;2023-04-30T05:32:53;8.50;;;4.73;;
4867;SDS011;2448;48.086;10.862;2023-04-30T05:35:19;6.53;;;4.53;;
4867;SDS011;2448;48.086;10.862;2023-04-30T05:37:44;6.23;;;4.50;;
4867;SDS011;2448;48.086;10.862;2023-04-30T05:40:10;5.93;;;4.27;;
4867;SDS011;2448;48.086;10.862;2023-04-30T05:42:36;6.17;;;3.93;;
4867;SDS011;2448;48.086;10.862;2023-04-30T05:45:02;6.40;;;4.27;;
4867;SDS011;2448;48.086;10.862;2023-04-30T05:47:28;10.00;;;3.80;;
4867;SDS011;2448;48.086;10.862;2023-04-30T05:49:53;5.30;;;4.30;;
4867;SDS011;2448;48.086;10.862;2023-04-30T05:52:18;7.00;;;4.00;;
4867;SDS011;2448;48.086;10.862;2023-04-30T05:54:44;4.70;;;3.53;;
4867;SDS011;2448;48.086;10.862;2023-04-30T05:57:09;8.43;;;5.00;;
4867;SDS011;2448;48.086;10.862;2023-04-30T05:59:35;5.80;;;4.30;;
4867;SDS011;2448;48.086;10.862;2023-04-30T06:02:00;5.40;;;3.50;;
4867;SDS011;2448;48.086;10.862;2023-04-30T06:04:25;6.20;;;4.10;;
4867;SDS011;2448;48.086;10.862;2023-04-30T06:06:51;4.53;;;4.13;;
4867;SDS011;2448;48.086;10.862;2023-04-30T06:09:16;5.17;;;3.60;;
4867;SDS011;2448;48.086;10.862;2023-04-30T06:11:42;6.47;;;4.57;;
4867;SDS011;2448;48.086;10.862;2023-04-30T06:14:09;4.90;;;3.93;;
4867;SDS011;2448;48.086;10.862;2023-04-30T06:16:35;6.90;;;4.60;;
4867;SDS011;2448;48.086;10.862;2023-04-30T06:19:00;4.77;;;4.30;;
4867;SDS011;2448;48.086;10.862;2023-04-30T06:21:25;5.47;;;3.70;;
4867;SDS011;2448;48.086;10.862;2023-04-30T06:23:51;5.70;;;3.97;;
4867;SDS011;2448;48.086;10.862;2023-04-30T06:26:18;4.03;;;3.63;;
4867;SDS011;2448;48.086;10.862;2023-04-30T06:28:43;4.80;;;4.40;;
4867;SDS011;2448;48.086;10.862;2023-04-30T06:31:09;6.63;;;5.27;;
4867;SDS011;2448;48.086;10.862;2023-04-30T06:33:34;5.40;;;4.00;;
4867;SDS011;2448;48.086;10.862;2023-04-30T06:36:00;6.30;;;4.40;;
4867;SDS011;2448;48.086;10.862;2023-04-30T06:38:25;5.77;;;4.63;;
4867;SDS011;2448;48.086;10.862;2023-04-30T06:40:50;4.67;;;4.23;;
4867;SDS011;2448;48.086;10.862;2023-04-30T06:43:16;7.53;;;3.70;;
4867;SDS011;2448;48.086;10.862;2023-04-30T06:45:41;7.03;;;4.27;;
4867;SDS011;2448;48.086;10.862;2023-04-30T06:48:06;6.20;;;4.40;;
4867;SDS011;2448;48.086;10.862;2023-04-30T06:50:32;10.00;;;4.60;;
4867;SDS011;2448;48.086;10.862;2023-04-30T06:52:57;4.33;;;3.83;;
4867;SDS011;2448;48.086;10.862;2023-04-30T06:55:23;5.33;;;4.30;;
4867;SDS011;2448;48.086;10.862;2023-04-30T06:57:48;4.70;;;4.23;;
4867;SDS011;2448;48.086;10.862;2023-04-30T07:00:13;5.00;;;4.40;;
4867;SDS011;2448;48.086;10.862;2023-04-30T07:02:39;5.43;;;3.90;;
4867;SDS011;2448;48.086;10.862;2023-04-30T07:05:05;6.50;;;4.20;;
4867;SDS011;2448;48.086;10.862;2023-04-30T07:07:30;6.50;;;5.00;;
4867;SDS011;2448;48.086;10.862;2023-04-30T07:09:56;6.27;;;4.70;;
4867;SDS011;2448;48.086;10.862;2023-04-30T07:12:22;4.87;;;4.47;;
4867;SDS011;2448;48.086;10.862;2023-04-30T07:14:47;5.33;;;4.17;;
4867;SDS011;2448;48.086;10.862;2023-04-30T07:17:12;5.23;;;4.30;;
4867;SDS011;2448;48.086;10.862;2023-04-30T07:19:38;6.07;;;4.07;;
4867;SDS011;2448;48.086;10.862;2023-04-30T07:22:03;7.60;;;4.90;;
4867;SDS011;2448;48.086;10.862;2023-04-30T07:24:29;4.33;;;4.00;;
4867;SDS011;2448;48.086;10.862;2023-04-30T07:26:55;5.10;;;4.17;;
4867;SDS011;2448;48.086;10.862;2023-04-30T07:29:20;4.53;;;3.60;;
4867;SDS011;2448;48.086;10.862;2023-04-30T07:31:46;4.73;;;4.07;;
4867;SDS011;2448;48.086;10.862;2023-04-30T07:34:11;5.20;;;3.93;;
4867;SDS011;2448;48.086;10.862;2023-04-30T07:36:37;4.97;;;4.20;;
4867;SDS011;2448;48.086;10.862;2023-04-30T07:39:03;4.30;;;3.90;;
4867;SDS011;2448;48.086;10.862;2023-04-30T07:41:28;4.13;;;3.73;;
4867;SDS011;2448;48.086;10.862;2023-04-30T07:43:54;4.40;;;4.00;;
4867;SDS011;2448;48.086;10.862;2023-04-30T07:46:19;4.13;;;3.73;;
4867;SDS011;2448;48.086;10.862;2023-04-30T07:48:44;7.00;;;4.40;;
4867;SDS011;2448;48.086;10.862;2023-04-30T07:51:10;5.77;;;4.30;;
4867;SDS011;2448;48.086;10.862;2023-04-30T07:53:36;8.80;;;4.93;;
4867;SDS011;2448;48.086;10.862;2023-04-30T07:56:01;6.07;;;4.73;;
4867;SDS011;2448;48.086;10.862;2023-04-30T07:58:26;7.23;;;3.93;;
4867;SDS011;2448;48.086;10.862;2023-04-30T08:00:52;4.50;;;3.97;;
4867;SDS011;2448;48.086;10.862;2023-04-30T08:03:17;4.70;;;4.00;;
4867;SDS011;2448;48.086;10.862;2023-04-30T08:05:44;4.23;;;3.80;;
4867;SDS011;2448;48.086;10.862;2023-04-30T08:08:10;7.73;;;4.90;;
4867;SDS011;2448;48.086;10.862;2023-04-30T08:10:35;4.30;;;3.67;;
4867;SDS011;2448;48.086;10.862;2023-04-30T08:13:02;6.87;;;4.97;;
4867;SDS011;2448;48.086;10.862;2023-04-30T08:15:28;4.27;;;3.77;;
4867;SDS011;2448;48.086;10.862;2023-04-30T08:17:53;5.20;;;4.50;;
4867;SDS011;2448;48.086;10.862;2023-04-30T08:20:18;4.47;;;3.80;;
4867;SDS011;2448;48.086;10.862;2023-04-30T08:22:45;5.63;;;3.10;;
4867;SDS011;2448;48.086;10.862;2023-04-30T08:25:10;4.40;;;4.00;;
4867;SDS011;2448;48.086;10.862;2023-04-30T08:27:36;5.10;;;4.20;;
4867;SDS011;2448;48.086;10.862;2023-04-30T08:30:01;4.70;;;3.73;;
4867;SDS011;2448;48.086;10.862;2023-04-30T08:32:27;4.53;;;4.10;;
4867;SDS011;2448;48.086;10.862;2023-04-30T08:34:53;3.80;;;3.50;;
4867;SDS011;2448;48.086;10.862;2023-04-30T08:37:18;3.60;;;3.30;;
4867;SDS011;2448;48.086;10.862;2023-04-30T08:39:44;4.10;;;3.70;;
4867;SDS011;2448;48.086;10.862;2023-04-30T08:42:09;4.40;;;3.87;;
4867;SDS011;2448;48.086;10.862;2023-04-30T08:44:36;3.87;;;3.30;;
4867;SDS011;2448;48.086;10.862;2023-04-30T08:47:03;4.37;;;3.80;;
4867;SDS011;2448;48.086;10.862;2023-04-30T08:49:31;3.60;;;3.30;;
4867;SDS011;2448;48.086;10.862;2023-04-30T08:51:57;7.53;;;4.00;;
4867;SDS011;2448;48.086;10.862;2023-04-30T08:54:24;4.00;;;3.70;;
4867;SDS011;2448;48.086;10.862;2023-04-30T08:56:50;3.40;;;3.10;;
4867;SDS011;2448;48.086;10.862;2023-04-30T08:59:15;3.70;;;3.30;;
4867;SDS011;2448;48.086;10.862;2023-04-30T09:01:41;3.83;;;3.50;;
4867;SDS011;2448;48.086;10.862;2023-04-30T09:04:06;4.20;;;3.50;;
4867;SDS011;2448;48.086;10.862;2023-04-30T09:06:32;9.93;;;3.30;;
4867;SDS011;2448;48.086;10.862;2023-04-30T09:08:57;3.93;;;3.60;;
4867;SDS011;2448;48.086;10.862;2023-04-30T09:11:31;4.47;;;3.80;;
4867;SDS011;2448;48.086;10.862;2023-04-30T09:13:57;4.53;;;3.83;;
4867;SDS011;2448;48.086;10.862;2023-04-30T09:16:23;5.13;;;3.90;;
4867;SDS011;2448;48.086;10.862;2023-04-30T09:18:49;4.80;;;3.67;;
4867;SDS011;2448;48.086;10.862;2023-04-30T09:21:15;3.80;;;3.30;;
4867;SDS011;2448;48.086;10.862;2023-04-30T09:23:56;4.30;;;3.90;;
4867;SDS011;2448;48.086;10.862;2023-04-30T09:26:25;4.03;;;3.50;;
4867;SDS011;2448;48.086;10.862;2023-04-30T09:28:54;4.87;;;3.90;;
4867;SDS011;2448;48.086;10.862;2023-04-30T09:31:23;3.77;;;3.43;;
4867;SDS011;2448;48.086;10.862;2023-04-30T09:33:49;4.40;;;3.50;;
4867;SDS011;2448;48.086;10.862;2023-04-30T09:36:14;5.00;;;3.67;;
4867;SDS011;2448;48.086;10.862;2023-04-30T09:38:40;3.40;;;3.10;;
4867;SDS011;2448;48.086;10.862;2023-04-30T09:41:05;3.87;;;3.53;;
4867;SDS011;2448;48.086;10.862;2023-04-30T09:43:45;4.30;;;3.60;;
4867;SDS011;2448;48.086;10.862;2023-04-30T09:46:10;4.33;;;3.93;;
4867;SDS011;2448;48.086;10.862;2023-04-30T09:48:37;5.97;;;3.60;;
4867;SDS011;2448;48.086;10.862;2023-04-30T09:51:05;3.90;;;3.60;;
4867;SDS011;2448;48.086;10.862;2023-04-30T09:53:30;3.73;;;3.43;;
4867;SDS011;2448;48.086;10.862;2023-04-30T09:55:56;8.00;;;4.00;;
4867;SDS011;2448;48.086;10.862;2023-04-30T09:58:23;4.60;;;3.70;;
4867;SDS011;2448;48.086;10.862;2023-04-30T10:00:51;4.53;;;3.60;;
4867;SDS011;2448;48.086;10.862;2023-04-30T10:03:17;4.07;;;3.60;;
4867;SDS011;2448;48.086;10.862;2023-04-30T10:05:45;5.57;;;3.63;;
4867;SDS011;2448;48.086;10.862;2023-04-30T10:08:12;3.70;;;3.37;;
4867;SDS011;2448;48.086;10.862;2023-04-30T10:10:39;6.53;;;4.67;;
4867;SDS011;2448;48.086;10.862;2023-04-30T10:13:06;3.70;;;3.40;;
4867;SDS011;2448;48.086;10.862;2023-04-30T10:15:35;4.43;;;3.47;;
4867;SDS011;2448;48.086;10.862;2023-04-30T10:18:08;3.60;;;3.27;;
4867;SDS011;2448;48.086;10.862;2023-04-30T10:20:35;3.60;;;3.30;;
4867;SDS011;2448;48.086;10.862;2023-04-30T10:23:03;3.03;;;2.83;;
4867;SDS011;2448;48.086;10.862;2023-04-30T10:25:28;5.00;;;4.07;;
4867;SDS011;2448;48.086;10.862;2023-04-30T10:27:54;4.00;;;3.20;;
4867;SDS011;2448;48.086;10.862;2023-04-30T10:30:20;4.13;;;3.70;;
4867;SDS011;2448;48.086;10.862;2023-04-30T10:35:22;4.00;;;3.40;;
4867;SDS011;2448;48.086;10.862;2023-04-30T10:38:09;4.60;;;3.83;;
4867;SDS011;2448;48.086;10.862;2023-04-30T10:40:37;3.80;;;3.50;;
4867;SDS011;2448;48.086;10.862;2023-04-30T10:43:02;3.93;;;3.00;;
4867;SDS011;2448;48.086;10.862;2023-04-30T10:45:37;2.90;;;2.70;;
4867;SDS011;2448;48.086;10.862;2023-04-30T10:48:04;3.03;;;2.70;;
4867;SDS011;2448;48.086;10.862;2023-04-30T10:50:30;3.93;;;2.90;;
4867;SDS011;2448;48.086;10.862;2023-04-30T10:53:02;3.23;;;3.03;;
4867;SDS011;2448;48.086;10.862;2023-04-30T10:55:28;2.87;;;2.50;;
4867;SDS011;2448;48.086;10.862;2023-04-30T10:57:54;3.40;;;3.10;;
4867;SDS011;2448;48.086;10.862;2023-04-30T11:00:23;4.20;;;2.77;;
4867;SDS011;2448;48.086;10.862;2023-04-30T11:02:49;5.40;;;3.30;;
4867;SDS011;2448;48.086;10.862;2023-04-30T11:05:19;3.43;;;3.10;;
4867;SDS011;2448;48.086;10.862;2023-04-30T11:10:13;2.53;;;2.43;;
4867;SDS011;2448;48.086;10.862;2023-04-30T11:12:40;3.83;;;3.00;;
4867;SDS011;2448;48.086;10.862;2023-04-30T11:15:10;2.90;;;2.70;;
4867;SDS011;2448;48.086;10.862;2023-04-30T11:17:36;3.10;;;2.80;;
4867;SDS011;2448;48.086;10.862;2023-04-30T11:20:02;2.90;;;2.70;;
4867;SDS011;2448;48.086;10.862;2023-04-30T11:22:28;4.10;;;3.10;;
4867;SDS011;2448;48.086;10.862;2023-04-30T11:25:09;2.80;;;2.60;;
4867;SDS011;2448;48.086;10.862;2023-04-30T11:27:37;3.47;;;2.97;;
4867;SDS011;2448;48.086;10.862;2023-04-30T11:30:05;3.13;;;2.43;;
4867;SDS011;2448;48.086;10.862;2023-04-30T11:32:34;2.00;;;1.90;;
4867;SDS011;2448;48.086;10.862;2023-04-30T11:35:03;2.73;;;2.50;;
4867;SDS011;2448;48.086;10.862;2023-04-30T11:37:33;3.33;;;2.60;;
4867;SDS011;2448;48.086;10.862;2023-04-30T11:40:00;3.37;;;3.07;;
4867;SDS011;2448;48.086;10.862;2023-04-30T11:42:26;2.90;;;2.70;;
4867;SDS011;2448;48.086;10.862;2023-04-30T11:44:51;3.53;;;3.10;;
4867;SDS011;2448;48.086;10.862;2023-04-30T11:47:17;15.60;;;3.07;;
4867;SDS011;2448;48.086;10.862;2023-04-30T11:49:42;3.10;;;2.83;;
4867;SDS011;2448;48.086;10.862;2023-04-30T11:52:08;3.17;;;2.90;;
4867;SDS011;2448;48.086;10.862;2023-04-30T11:54:36;2.40;;;2.30;;
4867;SDS011;2448;48.086;10.862;2023-04-30T11:57:02;3.00;;;2.70;;
4867;SDS011;2448;48.086;10.862;2023-04-30T11:59:31;2.90;;;2.70;;
4867;SDS011;2448;48.086;10.862;2023-04-30T12:02:05;3.00;;;2.80;;
4867;SDS011;2448;48.086;10.862;2023-04-30T12:04:30;2.77;;;2.57;;
4867;SDS011;2448;48.086;10.862;2023-04-30T12:06:56;3.37;;;2.67;;
4867;SDS011;2448;48.086;10.862;2023-04-30T12:09:22;3.40;;;3.10;;
4867;SDS011;2448;48.086;10.862;2023-04-30T12:11:48;3.40;;;3.10;;
4867;SDS011;2448;48.086;10.862;2023-04-30T12:14:13;2.90;;;2.70;;
4867;SDS011;2448;48.086;10.862;2023-04-30T12:16:43;2.50;;;2.30;;
4867;SDS011;2448;48.086;10.862;2023-04-30T12:19:10;2.83;;;2.07;;
4867;SDS011;2448;48.086;10.862;2023-04-30T12:21:35;2.70;;;2.50;;
4867;SDS011;2448;48.086;10.862;2023-04-30T12:24:01;2.87;;;2.67;;
4867;SDS011;2448;48.086;10.862;2023-04-30T12:26:33;2.90;;;2.77;;
4867;SDS011;2448;48.086;10.862;2023-04-30T12:28:59;8.40;;;2.83;;
4867;SDS011;2448;48.086;10.862;2023-04-30T12:31:27;2.70;;;2.60;;
4867;SDS011;2448;48.086;10.862;2023-04-30T12:33:55;2.60;;;2.40;;
4867;SDS011;2448;48.086;10.862;2023-04-30T12:36:21;2.90;;;2.70;;
4867;SDS011;2448;48.086;10.862;2023-04-30T12:38:46;3.60;;;2.70;;
4867;SDS011;2448;48.086;10.862;2023-04-30T12:41:12;2.63;;;2.50;;
4867;SDS011;2448;48.086;10.862;2023-04-30T12:43:39;2.43;;;2.33;;
4867;SDS011;2448;48.086;10.862;2023-04-30T12:46:05;2.43;;;2.33;;
4867;SDS011;2448;48.086;10.862;2023-04-30T12:48:30;2.90;;;2.70;;
4867;SDS011;2448;48.086;10.862;2023-04-30T12:51:07;2.20;;;2.10;;
4867;SDS011;2448;48.086;10.862;2023-04-30T12:53:34;1.97;;;1.87;;
4867;SDS011;2448;48.086;10.862;2023-04-30T12:56:09;3.10;;;2.80;;
4867;SDS011;2448;48.086;10.862;2023-04-30T12:58:36;4.67;;;2.67;;
4867;SDS011;2448;48.086;10.862;2023-04-30T13:01:02;2.43;;;2.20;;
4867;SDS011;2448;48.086;10.862;2023-04-30T13:03:27;2.00;;;1.90;;
4867;SDS011;2448;48.086;10.862;2023-04-30T13:05:52;2.00;;;1.90;;
4867;SDS011;2448;48.086;10.862;2023-04-30T13:08:18;2.63;;;2.43;;
4867;SDS011;2448;48.086;10.862;2023-04-30T13:10:45;2.17;;;2.07;;
4867;SDS011;2448;48.086;10.862;2023-04-30T13:13:11;2.73;;;2.53;;
4867;SDS011;2448;48.086;10.862;2023-04-30T13:15:37;3.10;;;2.80;;
4867;SDS011;2448;48.086;10.862;2023-04-30T13:18:02;2.60;;;2.50;;
4867;SDS011;2448;48.086;10.862;2023-04-30T13:20:28;2.30;;;2.20;;
4867;SDS011;2448;48.086;10.862;2023-04-30T13:22:56;2.47;;;2.27;;
4867;SDS011;2448;48.086;10.862;2023-04-30T13:25:21;2.37;;;2.27;;
4867;SDS011;2448;48.086;10.862;2023-04-30T13:27:47;2.23;;;2.13;;
4867;SDS011;2448;48.086;10.862;2023-04-30T13:30:12;2.70;;;2.50;;
4867;SDS011;2448;48.086;10.862;2023-04-30T13:32:38;4.10;;;3.10;;
4867;SDS011;2448;48.086;10.862;2023-04-30T13:35:04;3.10;;;2.57;;
4867;SDS011;2448;48.086;10.862;2023-04-30T13:37:29;3.30;;;2.50;;
4867;SDS011;2448;48.086;10.862;2023-04-30T13:39:57;2.47;;;2.27;;
4867;SDS011;2448;48.086;10.862;2023-04-30T13:42:25;2.20;;;2.00;;
4867;SDS011;2448;48.086;10.862;2023-04-30T13:44:51;2.87;;;2.60;;
4867;SDS011;2448;48.086;10.862;2023-04-30T13:47:16;2.33;;;2.23;;
4867;SDS011;2448;48.086;10.862;2023-04-30T13:49:42;2.33;;;2.10;;
4867;SDS011;2448;48.086;10.862;2023-04-30T13:52:07;5.50;;;2.07;;
4867;SDS011;2448;48.086;10.862;2023-04-30T13:54:32;2.30;;;2.20;;
4867;SDS011;2448;48.086;10.862;2023-04-30T13:56:58;2.63;;;2.47;;
4867;SDS011;2448;48.086;10.862;2023-04-30T13:59:24;4.50;;;2.63;;
4867;SDS011;2448;48.086;10.862;2023-04-30T14:01:49;3.67;;;2.60;;
4867;SDS011;2448;48.086;10.862;2023-04-30T14:04:14;2.23;;;2.13;;
4867;SDS011;2448;48.086;10.862;2023-04-30T14:06:40;2.20;;;2.10;;
4867;SDS011;2448;48.086;10.862;2023-04-30T14:09:06;2.50;;;2.30;;
4867;SDS011;2448;48.086;10.862;2023-04-30T14:11:31;10.53;;;2.80;;
4867;SDS011;2448;48.086;10.862;2023-04-30T14:13:56;2.73;;;2.50;;
4867;SDS011;2448;48.086;10.862;2023-04-30T14:16:22;1.73;;;1.67;;
4867;SDS011;2448;48.086;10.862;2023-04-30T14:18:47;3.07;;;2.50;;
4867;SDS011;2448;48.086;10.862;2023-04-30T14:21:13;2.30;;;2.20;;
4867;SDS011;2448;48.086;10.862;2023-04-30T14:23:39;3.50;;;2.40;;
4867;SDS011;2448;48.086;10.862;2023-04-30T14:26:05;2.67;;;2.47;;
4867;SDS011;2448;48.086;10.862;2023-04-30T14:28:31;1.70;;;1.60;;
4867;SDS011;2448;48.086;10.862;2023-04-30T14:30:56;2.30;;;2.20;;
4867;SDS011;2448;48.086;10.862;2023-04-30T14:33:22;2.87;;;2.60;;
4867;SDS011;2448;48.086;10.862;2023-04-30T14:35:47;2.70;;;2.37;;
4867;SDS011;2448;48.086;10.862;2023-04-30T14:38:13;2.30;;;2.20;;
4867;SDS011;2448;48.086;10.862;2023-04-30T14:40:38;2.80;;;2.40;;
4867;SDS011;2448;48.086;10.862;2023-04-30T14:43:04;2.33;;;2.23;;
4867;SDS011;2448;48.086;10.862;2023-04-30T14:45:29;2.60;;;2.40;;
4867;SDS011;2448;48.086;10.862;2023-04-30T14:47:56;2.53;;;2.37;;
4867;SDS011;2448;48.086;10.862;2023-04-30T14:50:22;3.07;;;2.37;;
4867;SDS011;2448;48.086;10.862;2023-04-30T14:52:48;3.67;;;2.70;;
4867;SDS011;2448;48.086;10.862;2023-04-30T14:55:14;2.70;;;2.50;;
4867;SDS011;2448;48.086;10.862;2023-04-30T14:57:39;2.77;;;2.57;;
4867;SDS011;2448;48.086;10.862;2023-04-30T15:00:05;2.33;;;2.13;;
4867;SDS011;2448;48.086;10.862;2023-04-30T15:02:30;8.43;;;2.20;;
4867;SDS011;2448;48.086;10.862;2023-04-30T15:04:56;2.37;;;2.10;;
4867;SDS011;2448;48.086;10.862;2023-04-30T15:07:21;2.00;;;1.90;;
4867;SDS011;2448;48.086;10.862;2023-04-30T15:09:47;4.03;;;2.37;;
4867;SDS011;2448;48.086;10.862;2023-04-30T15:12:12;2.30;;;2.10;;